Monument, Colorado
Current Conditions -  °F | °C
As of 2:58 AM on Sunday 23 Nov 2014 (Local Time) from KAFF Reporting Station
Broken Clouds Broken Clouds  
Wind Chill: 36°   Ceiling: 8500
Heat Index: 42°   Visibility: 10mi
Dew Point: 22°   Wind: 9mph
Humidity: 45%   Direction: 330°NNW
Pressure: 29.62"   Gusts: NA
Location:  39.09°N, 104.87°W
Report Text: KAFF 230958Z AUTO 33008KT 10SM BKN085 05/M06 A2962 RMK AO2 SLP989 T00531058
Loading
Personal Weather Stations






























Interactive Weather Map New forecast layout! Learn more

10-Day Weather Forecast

Advertisements
Track Severe Weather on mobile